Time,TemperatureF,DewpointF,PressureIn,WindDirection,WindDirectionDegrees,WindSpeedMPH,WindSpeedGustMPH,Humidity,HourlyPrecipIn,Conditions,Clouds,dailyrainin,SolarRadiationWatts/m^2,SoftwareType,DateUTC
2013-04-11 00:02:00,62.0,55.0,-100.00,NNE,14,1.0,8.0,77,0.00,,,0.00,0.000000,,2013-04-11 07:02:00,
2013-04-11 00:12:00,62.0,55.0,-100.00,NNE,14,1.0,8.0,77,0.00,,,0.00,0.000000,,2013-04-11 07:12:00,
2013-04-11 00:43:00,61.0,55.0,-100.00,ESE,108,3.0,5.0,80,0.00,,,0.00,0.000000,,2013-04-11 07:43:00,
2013-04-11 00:52:00,61.0,55.0,-100.00,ESE,108,3.0,5.0,80,0.00,,,0.00,0.000000,,2013-04-11 07:52:00,
2013-04-11 01:02:00,61.0,55.0,-100.00,ESE,108,3.0,5.0,80,0.00,,,0.00,0.000000,,2013-04-11 08:02:00,
2013-04-11 01:11:00,61.0,55.0,-100.00,ESE,108,3.0,5.0,80,0.00,,,0.00,0.000000,,2013-04-11 08:11:00,
2013-04-11 01:43:00,62.0,52.0,-100.00,North,6,3.0,7.0,69,0.00,,,0.00,0.000000,,2013-04-11 08:43:00,
2013-04-11 01:52:00,62.0,52.0,-100.00,North,6,3.0,7.0,69,0.00,,,0.00,0.000000,,2013-04-11 08:52:00,
2013-04-11 02:02:00,62.0,52.0,-100.00,North,6,3.0,7.0,69,0.00,,,0.00,0.000000,,2013-04-11 09:02:00,
2013-04-11 02:11:00,62.0,52.0,-100.00,North,6,3.0,7.0,69,0.00,,,0.00,0.000000,,2013-04-11 09:11:00,
2013-04-11 02:53:00,61.0,47.0,-100.00,ENE,78,1.0,10.0,59,0.00,,,0.00,0.000000,,2013-04-11 09:53:00,
2013-04-11 03:02:00,61.0,47.0,-100.00,ENE,78,1.0,10.0,59,0.00,,,0.00,0.000000,,2013-04-11 10:02:00,
2013-04-11 03:12:00,61.0,47.0,-100.00,ENE,78,1.0,10.0,59,0.00,,,0.00,0.000000,,2013-04-11 10:12:00,
2013-04-11 03:52:00,60.0,47.0,-100.00,East,86,3.0,6.0,61,0.00,,,0.00,0.000000,,2013-04-11 10:52:00,
2013-04-11 04:02:00,60.0,47.0,-100.00,East,86,3.0,6.0,61,0.00,,,0.00,0.000000,,2013-04-11 11:02:00,
2013-04-11 04:12:00,60.0,47.0,-100.00,East,86,3.0,6.0,61,0.00,,,0.00,0.000000,,2013-04-11 11:12:00,
2013-04-11 04:43:00,54.0,47.0,-100.00,South,187,1.0,3.0,77,0.00,,,-99.99,0.000000,,2013-04-11 11:43:00,
2013-04-11 04:52:00,54.0,47.0,-100.00,South,187,1.0,3.0,77,0.00,,,-99.99,0.000000,,2013-04-11 11:52:00,
2013-04-11 05:02:00,54.0,47.0,-100.00,South,187,1.0,3.0,77,0.00,,,-99.99,0.000000,,2013-04-11 12:02:00,
2013-04-11 05:12:00,54.0,47.0,-100.00,South,187,1.0,3.0,77,0.00,,,-99.99,0.000000,,2013-04-11 12:12:00,
2013-04-11 05:43:00,54.0,46.0,-100.00,SSE,151,2.0,3.0,75,0.00,,,-99.99,0.000000,,2013-04-11 12:43:00,
2013-04-11 05:52:00,54.0,46.0,-100.00,SSE,151,2.0,3.0,75,0.00,,,-99.99,0.000000,,2013-04-11 12:52:00,
2013-04-11 06:02:00,54.0,46.0,-100.00,SSE,151,2.0,3.0,75,0.00,,,-99.99,0.000000,,2013-04-11 13:02:00,
2013-04-11 06:12:00,54.0,46.0,-100.00,SSE,151,2.0,3.0,75,0.00,,,-99.99,0.000000,,2013-04-11 13:12:00,
2013-04-11 06:43:00,51.0,46.0,-100.00,SE,143,1.0,4.0,82,0.00,,,0.00,0.000000,,2013-04-11 13:43:00,
2013-04-11 06:53:00,51.0,46.0,-100.00,SE,143,1.0,4.0,82,0.00,,,0.00,0.000000,,2013-04-11 13:53:00,
2013-04-11 07:02:00,51.0,46.0,-100.00,SE,143,1.0,4.0,82,0.00,,,0.00,0.000000,,2013-04-11 14:02:00,
2013-04-11 07:12:00,51.0,46.0,-100.00,SE,143,1.0,4.0,82,0.00,,,0.00,0.000000,,2013-04-11 14:12:00,
2013-04-11 07:42:00,56.0,49.0,-100.00,ESE,121,4.0,8.0,77,0.00,,,0.00,16.000000,,2013-04-11 14:42:00,
2013-04-11 07:52:00,56.0,49.0,-100.00,ESE,121,4.0,8.0,77,0.00,,,0.00,16.000000,,2013-04-11 14:52:00,
2013-04-11 08:02:00,56.0,49.0,-100.00,ESE,121,4.0,8.0,77,0.00,,,0.00,16.000000,,2013-04-11 15:02:00,
2013-04-11 08:12:00,56.0,49.0,-100.00,ESE,121,4.0,8.0,77,0.00,,,0.00,16.000000,,2013-04-11 15:12:00,
2013-04-11 10:33:00,66.0,48.0,-100.00,NNW,345,5.0,13.0,52,-99.99,,,0.00,548.000000,,2013-04-11 17:33:00,
2013-04-11 10:43:00,66.0,48.0,-100.00,NNW,345,5.0,13.0,52,-99.99,,,0.00,548.000000,,2013-04-11 17:43:00,
2013-04-11 10:53:00,66.0,48.0,-100.00,NNW,345,5.0,13.0,52,-99.99,,,0.00,548.000000,,2013-04-11 17:53:00,
2013-04-11 11:02:00,66.0,48.0,-100.00,NNW,345,5.0,13.0,52,-99.99,,,0.00,548.000000,,2013-04-11 18:02:00,
2013-04-11 11:12:00,66.0,48.0,-100.00,NNW,345,5.0,13.0,52,-99.99,,,0.00,548.000000,,2013-04-11 18:12:00,
2013-04-11 11:13:00,68.0,48.0,-100.00,NW,319,7.0,13.0,49,0.00,,,0.00,705.000000,,2013-04-11 18:13:00,
2013-04-11 11:43:00,68.0,48.0,-100.00,NW,319,7.0,13.0,49,0.00,,,0.00,705.000000,,2013-04-11 18:43:00,
2013-04-11 11:53:00,68.0,48.0,-100.00,NW,319,7.0,13.0,49,0.00,,,0.00,705.000000,,2013-04-11 18:53:00,
2013-04-11 12:03:00,68.0,48.0,-100.00,NW,319,7.0,13.0,49,0.00,,,0.00,705.000000,,2013-04-11 19:03:00,
2013-04-11 12:33:00,72.0,46.0,-100.00,NW,313,7.0,15.0,40,0.00,,,0.00,823.000000,,2013-04-11 19:33:00,
2013-04-11 12:43:00,72.0,46.0,-100.00,NW,313,7.0,15.0,40,0.00,,,0.00,823.000000,,2013-04-11 19:43:00,
2013-04-11 12:53:00,72.0,46.0,-100.00,NW,313,7.0,15.0,40,0.00,,,0.00,823.000000,,2013-04-11 19:53:00,
2013-04-11 13:02:00,72.0,46.0,-100.00,NW,313,7.0,15.0,40,0.00,,,0.00,823.000000,,2013-04-11 20:02:00,
2013-04-11 13:12:00,72.0,46.0,-100.00,NW,313,7.0,15.0,40,0.00,,,0.00,823.000000,,2013-04-11 20:12:00,
2013-04-11 13:43:00,74.0,43.0,-100.00,NNW,334,8.0,16.0,33,0.00,,,0.00,879.000000,,2013-04-11 20:43:00,
2013-04-11 13:52:00,74.0,43.0,-100.00,NNW,334,8.0,16.0,33,0.00,,,0.00,879.000000,,2013-04-11 20:52:00,
2013-04-11 14:02:00,74.0,43.0,-100.00,NNW,334,8.0,16.0,33,0.00,,,0.00,879.000000,,2013-04-11 21:02:00,
2013-04-11 14:11:00,74.0,43.0,-100.00,NNW,334,8.0,16.0,33,0.00,,,0.00,879.000000,,2013-04-11 21:11:00,
2013-04-11 14:13:00,76.0,43.0,-100.00,NNW,341,7.0,17.0,31,0.00,,,0.00,882.000000,,2013-04-11 21:13:00,
2013-04-11 14:43:00,76.0,43.0,-100.00,NNW,341,7.0,17.0,31,0.00,,,0.00,882.000000,,2013-04-11 21:43:00,
2013-04-11 14:53:00,76.0,43.0,-100.00,NNW,341,7.0,17.0,31,0.00,,,0.00,882.000000,,2013-04-11 21:53:00,
2013-04-11 15:03:00,76.0,43.0,-100.00,NNW,341,7.0,17.0,31,0.00,,,0.00,882.000000,,2013-04-11 22:03:00,
2013-04-11 15:33:00,78.0,42.0,-100.00,NNW,337,7.0,15.0,28,0.00,,,0.00,759.000000,,2013-04-11 22:33:00,
2013-04-11 15:44:00,78.0,42.0,-100.00,NNW,337,7.0,15.0,28,0.00,,,0.00,759.000000,,2013-04-11 22:44:00,
2013-04-11 15:53:00,78.0,42.0,-100.00,NNW,337,7.0,15.0,28,0.00,,,0.00,759.000000,,2013-04-11 22:53:00,
2013-04-11 16:03:00,78.0,42.0,-100.00,NNW,337,7.0,15.0,28,0.00,,,0.00,759.000000,,2013-04-11 23:03:00,
2013-04-11 16:12:00,78.0,42.0,-100.00,NNW,337,7.0,15.0,28,0.00,,,0.00,759.000000,,2013-04-11 23:12:00,
2013-04-11 16:33:00,76.0,41.0,-100.00,NNW,347,8.0,14.0,28,0.00,,,0.00,655.000000,,2013-04-11 23:33:00,
2013-04-11 16:43:00,76.0,41.0,-100.00,NNW,347,8.0,14.0,28,0.00,,,0.00,655.000000,,2013-04-11 23:43:00,
2013-04-11 16:53:00,76.0,41.0,-100.00,NNW,347,8.0,14.0,28,0.00,,,0.00,655.000000,,2013-04-11 23:53:00,
2013-04-11 17:02:00,76.0,41.0,-100.00,NNW,347,8.0,14.0,28,0.00,,,0.00,655.000000,,2013-04-12 00:02:00,
2013-04-11 17:12:00,76.0,41.0,-100.00,NNW,347,8.0,14.0,28,0.00,,,0.00,655.000000,,2013-04-12 00:12:00,
2013-04-11 18:33:00,76.0,40.0,-100.00,NNW,335,6.0,11.0,27,-99.99,,,0.00,344.000000,,2013-04-12 01:33:00,
2013-04-11 18:42:00,76.0,40.0,-100.00,NNW,335,6.0,11.0,27,-99.99,,,0.00,344.000000,,2013-04-12 01:42:00,
2013-04-11 18:52:00,76.0,40.0,-100.00,NNW,335,6.0,11.0,27,-99.99,,,0.00,344.000000,,2013-04-12 01:52:00,
2013-04-11 19:02:00,76.0,40.0,-100.00,NNW,335,6.0,11.0,27,-99.99,,,0.00,344.000000,,2013-04-12 02:02:00,
2013-04-11 19:12:00,76.0,40.0,-100.00,NNW,335,6.0,11.0,27,-99.99,,,0.00,344.000000,,2013-04-12 02:12:00,
2013-04-11 19:42:00,74.0,41.0,-100.00,North,3,2.0,8.0,31,0.00,,,0.00,117.000000,,2013-04-12 02:42:00,
2013-04-11 19:52:00,74.0,41.0,-100.00,North,3,2.0,8.0,31,0.00,,,0.00,117.000000,,2013-04-12 02:52:00,
2013-04-11 20:02:00,74.0,41.0,-100.00,North,3,2.0,8.0,31,0.00,,,0.00,117.000000,,2013-04-12 03:02:00,
2013-04-11 20:11:00,74.0,41.0,-100.00,North,3,2.0,8.0,31,0.00,,,0.00,117.000000,,2013-04-12 03:11:00,
2013-04-11 20:13:00,62.0,46.0,-100.00,ENE,63,2.0,2.0,55,0.00,,,0.00,8.000000,,2013-04-12 03:13:00,
2013-04-11 20:33:00,62.0,46.0,-100.00,ENE,63,2.0,2.0,55,0.00,,,0.00,8.000000,,2013-04-12 03:33:00,
2013-04-11 21:33:00,54.0,45.0,-100.00,East,88,3.0,4.0,71,0.00,,,0.00,0.000000,,2013-04-12 04:33:00,
2013-04-11 22:32:00,51.0,46.0,-100.00,East,84,4.0,5.0,82,-99.99,,,0.00,0.000000,,2013-04-12 05:32:00,
2013-04-11 23:32:00,49.0,44.0,-100.00,ESE,115,1.0,3.0,84,-99.99,,,0.00,0.000000,,2013-04-12 06:32:00,